sensor_id;sensor_type;location;lat;lon;timestamp;pressure;altitude;pressure_sealevel;temperature;humidity
38780;BME280;29273;49.962;9.768;2023-04-23T00:01:25;99068.25;;;17.32;53.33
38780;BME280;29273;49.962;9.768;2023-04-23T00:03:51;99067.41;;;17.27;54.71
38780;BME280;29273;49.962;9.768;2023-04-23T00:06:20;99068.75;;;17.29;54.03
38780;BME280;29273;49.962;9.768;2023-04-23T00:08:46;99066.88;;;17.25;54.68
38780;BME280;29273;49.962;9.768;2023-04-23T00:11:12;99064.19;;;17.25;54.75
38780;BME280;29273;49.962;9.768;2023-04-23T00:13:38;99063.41;;;17.24;54.67
38780;BME280;29273;49.962;9.768;2023-04-23T00:16:03;99055.63;;;17.23;55.12
38780;BME280;29273;49.962;9.768;2023-04-23T00:18:29;99059.38;;;17.22;55.09
38780;BME280;29273;49.962;9.768;2023-04-23T00:20:54;99061.25;;;17.21;54.65
38780;BME280;29273;49.962;9.768;2023-04-23T00:23:20;99058.03;;;17.19;54.36
38780;BME280;29273;49.962;9.768;2023-04-23T00:25:45;99059.09;;;17.18;54.88
38780;BME280;29273;49.962;9.768;2023-04-23T00:28:11;99057.75;;;17.15;54.68
38780;BME280;29273;49.962;9.768;2023-04-23T00:30:36;99050.78;;;17.14;55.10
38780;BME280;29273;49.962;9.768;2023-04-23T00:33:02;99051.84;;;17.13;55.41
38780;BME280;29273;49.962;9.768;2023-04-23T00:35:27;99045.97;;;17.11;55.06
38780;BME280;29273;49.962;9.768;2023-04-23T00:37:53;99052.13;;;17.12;54.84
38780;BME280;29273;49.962;9.768;2023-04-23T00:40:19;99045.16;;;17.11;54.82
38780;BME280;29273;49.962;9.768;2023-04-23T00:42:45;99047.06;;;17.10;55.04
38780;BME280;29273;49.962;9.768;2023-04-23T00:45:13;99051.84;;;17.08;55.12
38780;BME280;29273;49.962;9.768;2023-04-23T00:47:39;99046.75;;;17.07;54.85
38780;BME280;29273;49.962;9.768;2023-04-23T00:50:05;99052.34;;;17.05;55.25
38780;BME280;29273;49.962;9.768;2023-04-23T00:52:32;99049.16;;;17.03;55.37
38780;BME280;29273;49.962;9.768;2023-04-23T00:54:58;99052.91;;;17.02;55.54
38780;BME280;29273;49.962;9.768;2023-04-23T00:57:25;99048.34;;;17.02;55.66
38780;BME280;29273;49.962;9.768;2023-04-23T00:59:51;99055.03;;;17.00;55.92
38780;BME280;29273;49.962;9.768;2023-04-23T01:02:17;99043.78;;;16.98;55.82
38780;BME280;29273;49.962;9.768;2023-04-23T01:04:42;99043.78;;;16.98;55.73
38780;BME280;29273;49.962;9.768;2023-04-23T01:07:11;99048.63;;;17.01;55.39
38780;BME280;29273;49.962;9.768;2023-04-23T01:09:37;99058.22;;;16.97;56.05
38780;BME280;29273;49.962;9.768;2023-04-23T01:12:05;99055.84;;;17.00;55.28
38780;BME280;29273;49.962;9.768;2023-04-23T01:14:30;99059.28;;;16.96;55.79
38780;BME280;29273;49.962;9.768;2023-04-23T01:16:56;99052.34;;;16.95;55.85
38780;BME280;29273;49.962;9.768;2023-04-23T01:19:22;99053.16;;;16.95;56.10
38780;BME280;29273;49.962;9.768;2023-04-23T01:21:49;99061.97;;;16.96;56.22
38780;BME280;29273;49.962;9.768;2023-04-23T01:24:15;99060.34;;;16.95;56.47
38780;BME280;29273;49.962;9.768;2023-04-23T01:26:41;99060.34;;;16.95;56.08
38780;BME280;29273;49.962;9.768;2023-04-23T01:29:07;99064.91;;;16.94;56.61
38780;BME280;29273;49.962;9.768;2023-04-23T01:31:34;99057.94;;;16.93;56.21
38780;BME280;29273;49.962;9.768;2023-04-23T01:34:00;99067.84;;;16.93;56.01
38780;BME280;29273;49.962;9.768;2023-04-23T01:36:26;99073.44;;;16.91;56.23
38780;BME280;29273;49.962;9.768;2023-04-23T01:38:52;99072.38;;;16.87;56.05
38780;BME280;29273;49.962;9.768;2023-04-23T01:41:18;99072.63;;;16.86;56.46
38780;BME280;29273;49.962;9.768;2023-04-23T01:43:44;99073.69;;;16.85;56.75
38780;BME280;29273;49.962;9.768;2023-04-23T01:46:10;99070.44;;;16.82;56.52
38780;BME280;29273;49.962;9.768;2023-04-23T01:48:37;99076.06;;;16.81;56.77
38780;BME280;29273;49.962;9.768;2023-04-23T01:51:02;99068.53;;;16.78;56.90
38780;BME280;29273;49.962;9.768;2023-04-23T01:53:28;99077.09;;;16.75;57.02
38780;BME280;29273;49.962;9.768;2023-04-23T01:55:54;99069.88;;;16.75;56.64
38780;BME280;29273;49.962;9.768;2023-04-23T01:58:20;99069.56;;;16.72;56.97
38780;BME280;29273;49.962;9.768;2023-04-23T02:00:50;99072.50;;;16.70;57.30
38780;BME280;29273;49.962;9.768;2023-04-23T02:03:16;99066.63;;;16.68;57.10
38780;BME280;29273;49.962;9.768;2023-04-23T02:05:42;99072.22;;;16.67;57.50
38780;BME280;29273;49.962;9.768;2023-04-23T02:08:09;99070.63;;;16.65;57.40
38780;BME280;29273;49.962;9.768;2023-04-23T02:10:35;99074.09;;;16.61;57.36
38780;BME280;29273;49.962;9.768;2023-04-23T02:13:01;99072.19;;;16.61;57.54
38780;BME280;29273;49.962;9.768;2023-04-23T02:15:27;99070.03;;;16.58;57.68
38780;BME280;29273;49.962;9.768;2023-04-23T02:17:53;99069.75;;;16.55;57.91
38780;BME280;29273;49.962;9.768;2023-04-23T02:20:19;99068.97;;;16.54;57.55
38780;BME280;29273;49.962;9.768;2023-04-23T02:22:46;99058.78;;;16.51;57.77
38780;BME280;29273;49.962;9.768;2023-04-23T02:25:13;99070.53;;;16.50;58.10
38780;BME280;29273;49.962;9.768;2023-04-23T02:27:43;99066.53;;;16.48;58.24
38780;BME280;29273;49.962;9.768;2023-04-23T02:30:09;99064.66;;;16.48;57.86
38780;BME280;29273;49.962;9.768;2023-04-23T02:32:36;99071.31;;;16.45;58.22
38780;BME280;29273;49.962;9.768;2023-04-23T02:35:02;99062.50;;;16.45;58.59
38780;BME280;29273;49.962;9.768;2023-04-23T02:37:28;99074.50;;;16.42;58.26
38780;BME280;29273;49.962;9.768;2023-04-23T02:39:53;99071.31;;;16.40;58.74
38780;BME280;29273;49.962;9.768;2023-04-23T02:42:19;99073.66;;;16.37;59.08
38780;BME280;29273;49.962;9.768;2023-04-23T02:44:44;99070.19;;;16.36;58.80
38780;BME280;29273;49.962;9.768;2023-04-23T02:47:10;99069.66;;;16.34;58.95
38780;BME280;29273;49.962;9.768;2023-04-23T02:49:35;99075.25;;;16.33;59.08
38780;BME280;29273;49.962;9.768;2023-04-23T02:52:01;99076.56;;;16.30;58.75
38780;BME280;29273;49.962;9.768;2023-04-23T02:54:27;99074.41;;;16.27;58.88
38780;BME280;29273;49.962;9.768;2023-04-23T02:56:52;99076.25;;;16.26;58.95
38780;BME280;29273;49.962;9.768;2023-04-23T02:59:18;99070.94;;;16.26;59.01
38780;BME280;29273;49.962;9.768;2023-04-23T03:01:43;99076.53;;;16.25;59.24
38780;BME280;29273;49.962;9.768;2023-04-23T03:04:10;99078.41;;;16.24;59.25
38780;BME280;29273;49.962;9.768;2023-04-23T03:06:36;99079.44;;;16.23;59.38
38780;BME280;29273;49.962;9.768;2023-04-23T03:09:02;99085.63;;;16.24;58.95
38780;BME280;29273;49.962;9.768;2023-04-23T03:11:28;99078.66;;;16.23;59.37
38780;BME280;29273;49.962;9.768;2023-04-23T03:13:54;99081.06;;;16.24;59.28
38780;BME280;29273;49.962;9.768;2023-04-23T03:16:20;99086.13;;;16.21;59.49
38780;BME280;29273;49.962;9.768;2023-04-23T03:18:46;99083.72;;;16.19;59.54
38780;BME280;29273;49.962;9.768;2023-04-23T03:21:11;99092.78;;;16.18;59.34
38780;BME280;29273;49.962;9.768;2023-04-23T03:23:37;99088.50;;;16.17;59.72
38780;BME280;29273;49.962;9.768;2023-04-23T03:26:02;99093.03;;;16.17;59.66
38780;BME280;29273;49.962;9.768;2023-04-23T03:28:29;99092.47;;;16.15;59.04
38780;BME280;29273;49.962;9.768;2023-04-23T03:30:55;99095.16;;;16.15;59.52
38780;BME280;29273;49.962;9.768;2023-04-23T03:33:21;99101.53;;;16.14;59.60
38780;BME280;29273;49.962;9.768;2023-04-23T03:35:46;99093.81;;;16.12;59.31
38780;BME280;29273;49.962;9.768;2023-04-23T03:38:16;99095.66;;;16.12;59.40
38780;BME280;29273;49.962;9.768;2023-04-23T03:40:42;99091.16;;;16.12;59.49
38780;BME280;29273;49.962;9.768;2023-04-23T03:43:09;99095.66;;;16.12;59.64
38780;BME280;29273;49.962;9.768;2023-04-23T03:45:55;99096.75;;;16.11;59.72
38780;BME280;29273;49.962;9.768;2023-04-23T03:48:21;99093.25;;;16.10;59.44
38780;BME280;29273;49.962;9.768;2023-04-23T03:50:47;99098.59;;;16.10;59.54
38780;BME280;29273;49.962;9.768;2023-04-23T03:53:26;99094.31;;;16.09;59.71
38780;BME280;29273;49.962;9.768;2023-04-23T03:56:10;99085.47;;;16.08;59.57
38780;BME280;29273;49.962;9.768;2023-04-23T03:58:46;99091.91;;;16.07;59.91
38780;BME280;29273;49.962;9.768;2023-04-23T04:01:12;99101.50;;;16.08;60.04
38780;BME280;29273;49.962;9.768;2023-04-23T04:03:37;99106.06;;;16.08;59.93
38780;BME280;29273;49.962;9.768;2023-04-23T04:06:03;99107.94;;;16.07;59.93
38780;BME280;29273;49.962;9.768;2023-04-23T04:08:28;99107.94;;;16.07;59.73
38780;BME280;29273;49.962;9.768;2023-04-23T04:10:56;99112.44;;;16.07;59.91
38780;BME280;29273;49.962;9.768;2023-04-23T04:13:22;99111.66;;;16.06;59.99
38780;BME280;29273;49.962;9.768;2023-04-23T04:15:47;99108.97;;;16.06;59.87
38780;BME280;29273;49.962;9.768;2023-04-23T04:18:13;99118.88;;;16.06;59.60
38780;BME280;29273;49.962;9.768;2023-04-23T04:20:38;99118.31;;;16.04;59.58
38780;BME280;29273;49.962;9.768;2023-04-23T04:23:04;99122.84;;;16.03;59.76
38780;BME280;29273;49.962;9.768;2023-04-23T04:25:29;99114.81;;;16.03;59.81
38780;BME280;29273;49.962;9.768;2023-04-23T04:27:55;99113.22;;;16.02;59.62
38780;BME280;29273;49.962;9.768;2023-04-23T04:30:23;99111.91;;;16.05;59.10
38780;BME280;29273;49.962;9.768;2023-04-23T04:32:49;99116.69;;;16.03;59.47
38780;BME280;29273;49.962;9.768;2023-04-23T04:35:15;99113.22;;;16.02;59.49
38780;BME280;29273;49.962;9.768;2023-04-23T04:37:40;99111.34;;;16.03;59.62
38780;BME280;29273;49.962;9.768;2023-04-23T04:40:08;99111.34;;;16.03;59.49
38780;BME280;29273;49.962;9.768;2023-04-23T04:42:36;99114.81;;;16.03;59.18
38780;BME280;29273;49.962;9.768;2023-04-23T04:45:01;99113.22;;;16.02;59.70
38780;BME280;29273;49.962;9.768;2023-04-23T04:47:28;99111.34;;;16.03;59.82
38780;BME280;29273;49.962;9.768;2023-04-23T04:49:54;99123.09;;;16.02;59.31
38780;BME280;29273;49.962;9.768;2023-04-23T04:52:22;99116.69;;;16.03;59.26
38780;BME280;29273;49.962;9.768;2023-04-23T04:54:48;99116.16;;;16.01;59.28
38780;BME280;29273;49.962;9.768;2023-04-23T04:57:14;99120.94;;;15.99;59.63
38780;BME280;29273;49.962;9.768;2023-04-23T04:59:39;99122.78;;;15.98;59.49
38780;BME280;29273;49.962;9.768;2023-04-23T05:02:05;99120.13;;;15.98;59.93
38780;BME280;29273;49.962;9.768;2023-04-23T05:04:31;99126.28;;;15.99;59.60
38780;BME280;29273;49.962;9.768;2023-04-23T05:06:56;99126.53;;;15.97;59.82
38780;BME280;29273;49.962;9.768;2023-04-23T05:09:21;99138.81;;;15.98;59.50
38780;BME280;29273;49.962;9.768;2023-04-23T05:11:47;99135.34;;;15.98;59.49
38780;BME280;29273;49.962;9.768;2023-04-23T05:14:13;99127.34;;;15.98;59.93
38780;BME280;29273;49.962;9.768;2023-04-23T05:16:38;99136.16;;;15.98;59.18
38780;BME280;29273;49.962;9.768;2023-04-23T05:19:04;99134.56;;;15.97;59.82
38780;BME280;29273;49.962;9.768;2023-04-23T05:21:29;99129.22;;;15.97;59.82
38780;BME280;29273;49.962;9.768;2023-04-23T05:23:55;99125.72;;;15.97;59.81
38780;BME280;29273;49.962;9.768;2023-04-23T05:26:21;99122.25;;;15.96;60.20
38780;BME280;29273;49.962;9.768;2023-04-23T05:28:46;99125.72;;;15.97;60.34
38780;BME280;29273;49.962;9.768;2023-04-23T05:31:12;99132.69;;;15.98;60.15
38780;BME280;29273;49.962;9.768;2023-04-23T05:33:38;99138.81;;;15.98;60.57
38780;BME280;29273;49.962;9.768;2023-04-23T05:36:03;99138.03;;;15.98;60.69
38780;BME280;29273;49.962;9.768;2023-04-23T05:38:29;99149.50;;;15.98;60.14
38780;BME280;29273;49.962;9.768;2023-04-23T05:40:54;99144.97;;;15.99;60.50
38780;BME280;29273;49.962;9.768;2023-04-23T05:43:20;99147.06;;;15.97;60.08
38780;BME280;29273;49.962;9.768;2023-04-23T05:45:45;99151.63;;;15.96;60.09
38780;BME280;29273;49.962;9.768;2023-04-23T05:48:11;99155.34;;;15.95;59.70
38780;BME280;29273;49.962;9.768;2023-04-23T05:50:36;99160.94;;;15.94;59.58
38780;BME280;29273;49.962;9.768;2023-04-23T05:53:02;99164.13;;;15.90;59.57
38780;BME280;29273;49.962;9.768;2023-04-23T05:55:27;99159.84;;;15.89;59.51
38780;BME280;29273;49.962;9.768;2023-04-23T05:57:53;99166.22;;;15.88;59.33
38780;BME280;29273;49.962;9.768;2023-04-23T06:00:18;99163.00;;;15.86;59.45
38780;BME280;29273;49.962;9.768;2023-04-23T06:02:45;99159.78;;;15.84;59.17
38780;BME280;29273;49.962;9.768;2023-04-23T06:05:10;99161.91;;;15.82;59.57
38780;BME280;29273;49.962;9.768;2023-04-23T06:07:36;99162.97;;;15.81;59.64
38780;BME280;29273;49.962;9.768;2023-04-23T06:10:03;99155.75;;;15.82;59.55
38780;BME280;29273;49.962;9.768;2023-04-23T06:12:30;99158.41;;;15.82;60.06
38780;BME280;29273;49.962;9.768;2023-04-23T06:14:56;99170.47;;;15.84;60.13
38780;BME280;29273;49.962;9.768;2023-04-23T06:17:22;99168.09;;;15.88;60.23
38780;BME280;29273;49.962;9.768;2023-04-23T06:19:47;99171.06;;;15.91;60.35
38780;BME280;29273;49.962;9.768;2023-04-23T06:22:13;99170.31;;;15.96;59.93
38780;BME280;29273;49.962;9.768;2023-04-23T06:24:38;99175.44;;;16.03;59.43
38780;BME280;29273;49.962;9.768;2023-04-23T06:27:04;99173.88;;;16.07;59.30
38780;BME280;29273;49.962;9.768;2023-04-23T06:29:33;99174.50;;;16.14;58.88
38780;BME280;29273;49.962;9.768;2023-04-23T06:32:03;99175.59;;;16.18;58.28
38780;BME280;29273;49.962;9.768;2023-04-23T06:34:29;99175.63;;;16.23;58.60
38780;BME280;29273;49.962;9.768;2023-04-23T06:36:54;99168.97;;;16.26;57.84
38780;BME280;29273;49.962;9.768;2023-04-23T06:39:20;99168.22;;;16.31;58.11
38780;BME280;29273;49.962;9.768;2023-04-23T06:41:45;99176.53;;;16.34;57.83
38780;BME280;29273;49.962;9.768;2023-04-23T06:44:19;99176.56;;;16.39;57.97
38780;BME280;29273;49.962;9.768;2023-04-23T06:46:51;99162.69;;;16.42;57.64
38780;BME280;29273;49.962;9.768;2023-04-23T06:49:17;99167.00;;;16.49;58.50
38780;BME280;29273;49.962;9.768;2023-04-23T06:51:42;99160.63;;;16.55;58.03
38780;BME280;29273;49.962;9.768;2023-04-23T06:54:08;99159.63;;;16.61;57.37
38780;BME280;29273;49.962;9.768;2023-04-23T06:56:33;99154.56;;;16.64;56.46
38780;BME280;29273;49.962;9.768;2023-04-23T06:58:59;99147.69;;;16.74;56.40
38780;BME280;29273;49.962;9.768;2023-04-23T07:01:25;99146.63;;;16.80;55.14
38780;BME280;29273;49.962;9.768;2023-04-23T07:03:51;99149.94;;;16.87;55.71
38780;BME280;29273;49.962;9.768;2023-04-23T07:06:18;99143.53;;;16.93;55.65
38780;BME280;29273;49.962;9.768;2023-04-23T07:08:44;99149.72;;;16.99;54.38
38780;BME280;29273;49.962;9.768;2023-04-23T07:11:10;99143.84;;;17.02;53.45
38780;BME280;29273;49.962;9.768;2023-04-23T07:13:36;99144.13;;;17.06;54.02
38780;BME280;29273;49.962;9.768;2023-04-23T07:16:01;99145.47;;;17.08;53.72
38780;BME280;29273;49.962;9.768;2023-04-23T07:18:26;99146.03;;;17.10;53.51
38780;BME280;29273;49.962;9.768;2023-04-23T07:20:52;99146.31;;;17.14;54.28
38780;BME280;29273;49.962;9.768;2023-04-23T07:23:17;99152.19;;;17.16;54.08
38780;BME280;29273;49.962;9.768;2023-04-23T07:25:43;99155.94;;;17.20;53.26
38780;BME280;29273;49.962;9.768;2023-04-23T07:28:08;99140.22;;;17.24;52.95
38780;BME280;29273;49.962;9.768;2023-04-23T07:30:34;99143.41;;;17.26;53.10
38780;BME280;29273;49.962;9.768;2023-04-23T07:32:59;99136.47;;;17.30;52.98
38780;BME280;29273;49.962;9.768;2023-04-23T07:35:25;99137.00;;;17.32;52.99
38780;BME280;29273;49.962;9.768;2023-04-23T07:37:51;99133.00;;;17.34;53.19
38780;BME280;29273;49.962;9.768;2023-04-23T07:40:20;99133.28;;;17.38;53.52
38780;BME280;29273;49.962;9.768;2023-04-23T07:42:46;99132.22;;;17.34;52.52
38780;BME280;29273;49.962;9.768;2023-04-23T07:45:12;99137.56;;;17.34;52.49
38780;BME280;29273;49.962;9.768;2023-04-23T07:47:37;99134.31;;;17.32;52.53
38780;BME280;29273;49.962;9.768;2023-04-23T07:50:03;99129.25;;;17.30;51.91
38780;BME280;29273;49.962;9.768;2023-04-23T07:52:29;99134.63;;;17.30;52.20
38780;BME280;29273;49.962;9.768;2023-04-23T07:54:55;99129.25;;;17.30;52.00
38780;BME280;29273;49.962;9.768;2023-04-23T07:57:20;99131.94;;;17.30;51.83
38780;BME280;29273;49.962;9.768;2023-04-23T07:59:45;99129.25;;;17.30;51.96
38780;BME280;29273;49.962;9.768;2023-04-23T08:02:11;99132.47;;;17.32;52.32
38780;BME280;29273;49.962;9.768;2023-04-23T08:04:36;99139.41;;;17.33;52.36
38780;BME280;29273;49.962;9.768;2023-04-23T08:07:02;99137.03;;;17.37;52.46
38780;BME280;29273;49.962;9.768;2023-04-23T08:09:27;99132.50;;;17.43;52.28
38780;BME280;29273;49.962;9.768;2023-04-23T08:11:53;99121.00;;;17.47;51.65
38780;BME280;29273;49.962;9.768;2023-04-23T08:14:19;99123.44;;;17.54;52.86
38780;BME280;29273;49.962;9.768;2023-04-23T08:16:44;99128.00;;;17.59;52.32
38780;BME280;29273;49.962;9.768;2023-04-23T08:19:10;99129.59;;;17.65;51.73
38780;BME280;29273;49.962;9.768;2023-04-23T08:21:37;99122.41;;;17.70;51.38
38780;BME280;29273;49.962;9.768;2023-04-23T08:24:04;99119.72;;;17.81;51.69
38780;BME280;29273;49.962;9.768;2023-04-23T08:26:32;99116.22;;;17.80;50.84
38780;BME280;29273;49.962;9.768;2023-04-23T08:28:57;99118.94;;;17.85;50.62
38780;BME280;29273;49.962;9.768;2023-04-23T08:31:25;99114.69;;;17.89;50.84
38780;BME280;29273;49.962;9.768;2023-04-23T08:33:50;99111.47;;;17.92;51.14
38780;BME280;29273;49.962;9.768;2023-04-23T08:36:16;99108.53;;;17.94;50.78
38780;BME280;29273;49.962;9.768;2023-04-23T08:38:41;99106.38;;;17.96;50.60
38780;BME280;29273;49.962;9.768;2023-04-23T08:41:09;99107.16;;;18.02;51.24
38780;BME280;29273;49.962;9.768;2023-04-23T08:43:46;99107.72;;;18.04;51.55
38780;BME280;29273;49.962;9.768;2023-04-23T08:46:12;99108.00;;;17.97;50.45
38780;BME280;29273;49.962;9.768;2023-04-23T08:48:43;99107.47;;;18.00;50.82
38780;BME280;29273;49.962;9.768;2023-04-23T08:51:09;99104.22;;;17.98;50.46
38780;BME280;29273;49.962;9.768;2023-04-23T08:53:37;99103.44;;;17.98;50.90
38780;BME280;29273;49.962;9.768;2023-04-23T08:56:04;99105.59;;;18.01;50.17
38780;BME280;29273;49.962;9.768;2023-04-23T08:58:31;99107.47;;;18.00;49.74
38780;BME280;29273;49.962;9.768;2023-04-23T09:00:57;99110.16;;;18.00;50.75
38780;BME280;29273;49.962;9.768;2023-04-23T09:03:23;99103.16;;;18.04;51.11
38780;BME280;29273;49.962;9.768;2023-04-23T09:05:50;99101.28;;;18.05;50.98
38780;BME280;29273;49.962;9.768;2023-04-23T09:08:19;99099.94;;;18.07;49.99
38780;BME280;29273;49.962;9.768;2023-04-23T09:10:45;99090.56;;;18.05;49.62
38780;BME280;29273;49.962;9.768;2023-04-23T09:13:11;99088.72;;;18.05;49.16
38780;BME280;29273;49.962;9.768;2023-04-23T09:15:39;99089.75;;;18.09;48.67
38780;BME280;29273;49.962;9.768;2023-04-23T09:18:08;99085.19;;;18.05;48.60
38780;BME280;29273;49.962;9.768;2023-04-23T09:20:33;99082.25;;;18.06;47.92
38780;BME280;29273;49.962;9.768;2023-04-23T09:22:59;99082.00;;;18.08;48.45
38780;BME280;29273;49.962;9.768;2023-04-23T09:25:25;99079.59;;;18.06;47.02
38780;BME280;29273;49.962;9.768;2023-04-23T09:27:51;99076.91;;;18.11;48.10
38780;BME280;29273;49.962;9.768;2023-04-23T09:30:18;99080.91;;;18.19;47.74
38780;BME280;29273;49.962;9.768;2023-04-23T09:32:44;99073.13;;;18.23;47.15
38780;BME280;29273;49.962;9.768;2023-04-23T09:35:17;99070.16;;;18.35;48.71
38780;BME280;29273;49.962;9.768;2023-04-23T09:37:48;99050.06;;;18.37;48.44
38780;BME280;29273;49.962;9.768;2023-04-23T09:40:19;99063.19;;;18.44;48.29
38780;BME280;29273;49.962;9.768;2023-04-23T09:42:50;99054.63;;;18.47;47.27
38780;BME280;29273;49.962;9.768;2023-04-23T09:45:19;99056.19;;;18.53;46.79
38780;BME280;29273;49.962;9.768;2023-04-23T09:47:56;99048.38;;;18.67;48.30
38780;BME280;29273;49.962;9.768;2023-04-23T09:50:36;99049.69;;;18.75;48.17
38780;BME280;29273;49.962;9.768;2023-04-23T09:53:08;99043.78;;;18.83;47.01
38780;BME280;29273;49.962;9.768;2023-04-23T09:55:36;99042.44;;;18.85;46.24
38780;BME280;29273;49.962;9.768;2023-04-23T09:58:14;99037.28;;;18.99;47.83
38780;BME280;29273;49.962;9.768;2023-04-23T10:00:40;99034.59;;;18.99;43.74
38780;BME280;29273;49.962;9.768;2023-04-23T10:03:06;99024.06;;;19.08;45.01
38780;BME280;29273;49.962;9.768;2023-04-23T10:05:40;99032.59;;;19.20;46.38
38780;BME280;29273;49.962;9.768;2023-04-23T10:08:06;99027.75;;;19.22;43.12
38780;BME280;29273;49.962;9.768;2023-04-23T10:10:32;99026.94;;;19.27;44.50
38780;BME280;29273;49.962;9.768;2023-04-23T10:12:58;99028.75;;;19.37;44.61
38780;BME280;29273;49.962;9.768;2023-04-23T10:15:25;99020.09;;;19.45;44.52
38780;BME280;29273;49.962;9.768;2023-04-23T10:17:52;99023.56;;;19.51;43.56
38780;BME280;29273;49.962;9.768;2023-04-23T10:20:19;99016.25;;;19.56;43.83
38780;BME280;29273;49.962;9.768;2023-04-23T10:22:45;99011.97;;;19.55;42.39
38780;BME280;29273;49.962;9.768;2023-04-23T10:25:11;99017.06;;;19.57;41.38
38780;BME280;29273;49.962;9.768;2023-04-23T10:27:39;99022.41;;;19.62;43.61
38780;BME280;29273;49.962;9.768;2023-04-23T10:30:05;99010.81;;;19.62;42.40
38780;BME280;29273;49.962;9.768;2023-04-23T10:32:35;99011.88;;;19.66;43.54
38780;BME280;29273;49.962;9.768;2023-04-23T10:35:01;99011.66;;;19.62;42.54
38780;BME280;29273;49.962;9.768;2023-04-23T10:37:27;99007.59;;;19.65;42.12
38780;BME280;29273;49.962;9.768;2023-04-23T10:39:54;99008.91;;;19.67;41.48
38780;BME280;29273;49.962;9.768;2023-04-23T10:42:21;99001.38;;;19.69;42.38
38780;BME280;29273;49.962;9.768;2023-04-23T10:44:47;98998.94;;;19.73;41.92
38780;BME280;29273;49.962;9.768;2023-04-23T10:47:16;98995.66;;;19.81;42.79
38780;BME280;29273;49.962;9.768;2023-04-23T10:49:42;98985.19;;;19.80;41.21
38780;BME280;29273;49.962;9.768;2023-04-23T10:52:15;98988.88;;;19.89;42.39
38780;BME280;29273;49.962;9.768;2023-04-23T10:54:43;98984.06;;;19.86;40.19
38780;BME280;29273;49.962;9.768;2023-04-23T10:57:11;98988.38;;;19.87;39.71
38780;BME280;29273;49.962;9.768;2023-04-23T10:59:50;98978.88;;;19.94;41.81
38780;BME280;29273;49.962;9.768;2023-04-23T11:02:16;98976.75;;;19.91;39.59
38780;BME280;29273;49.962;9.768;2023-04-23T11:04:51;98977.69;;;20.06;41.25
38780;BME280;29273;49.962;9.768;2023-04-23T11:07:18;98972.88;;;20.03;39.92
38780;BME280;29273;49.962;9.768;2023-04-23T11:09:47;98978.38;;;20.17;41.61
38780;BME280;29273;49.962;9.768;2023-04-23T11:12:30;98966.22;;;20.24;43.29
38780;BME280;29273;49.962;9.768;2023-04-23T11:14:57;98966.44;;;20.28;41.80
38780;BME280;29273;49.962;9.768;2023-04-23T11:22:57;98958.19;;;20.43;42.48
38780;BME280;29273;49.962;9.768;2023-04-23T11:25:27;98957.84;;;20.50;41.06
38780;BME280;29273;49.962;9.768;2023-04-23T11:27:54;98952.16;;;20.51;39.49
38780;BME280;29273;49.962;9.768;2023-04-23T11:30:22;98955.41;;;20.54;40.16
38780;BME280;29273;49.962;9.768;2023-04-23T11:32:49;98945.44;;;20.54;39.01
38780;BME280;29273;49.962;9.768;2023-04-23T11:35:17;98943.53;;;20.55;38.94
38780;BME280;29273;49.962;9.768;2023-04-23T11:37:44;98941.66;;;20.55;37.95
38780;BME280;29273;49.962;9.768;2023-04-23T11:40:12;98945.66;;;20.58;38.65
38780;BME280;29273;49.962;9.768;2023-04-23T11:42:42;98945.84;;;20.61;40.36
38780;BME280;29273;49.962;9.768;2023-04-23T11:45:25;98946.94;;;20.65;41.30
38780;BME280;29273;49.962;9.768;2023-04-23T11:47:52;98933.53;;;20.60;37.49
38780;BME280;29273;49.962;9.768;2023-04-23T11:50:31;98929.09;;;20.69;39.88
38780;BME280;29273;49.962;9.768;2023-04-23T11:53:03;98929.31;;;20.73;38.52
38780;BME280;29273;49.962;9.768;2023-04-23T11:55:29;98933.91;;;20.73;37.58
38780;BME280;29273;49.962;9.768;2023-04-23T11:57:55;98930.88;;;20.79;36.93
38780;BME280;29273;49.962;9.768;2023-04-23T12:00:24;98916.03;;;20.82;36.19
38780;BME280;29273;49.962;9.768;2023-04-23T12:03:01;98920.97;;;20.94;38.78
38780;BME280;29273;49.962;9.768;2023-04-23T12:05:28;98906.78;;;20.88;34.61
38780;BME280;29273;49.962;9.768;2023-04-23T12:07:54;98909.69;;;20.92;34.67
38780;BME280;29273;49.962;9.768;2023-04-23T12:10:30;98906.69;;;20.93;34.29
38780;BME280;29273;49.962;9.768;2023-04-23T12:12:57;98914.19;;;20.96;35.91
38780;BME280;29273;49.962;9.768;2023-04-23T12:15:22;98905.03;;;20.97;36.46
38780;BME280;29273;49.962;9.768;2023-04-23T12:18:07;98904.66;;;21.04;38.40
38780;BME280;29273;49.962;9.768;2023-04-23T12:20:33;98909.25;;;21.03;35.28
38780;BME280;29273;49.962;9.768;2023-04-23T12:23:03;98897.84;;;21.12;36.87
38780;BME280;29273;49.962;9.768;2023-04-23T12:25:29;98887.72;;;21.03;33.94
38780;BME280;29273;49.962;9.768;2023-04-23T12:27:58;98898.34;;;21.14;36.84
38780;BME280;29273;49.962;9.768;2023-04-23T12:30:28;98901.22;;;21.17;37.31
38780;BME280;29273;49.962;9.768;2023-04-23T12:33:00;98896.34;;;21.19;37.05
38780;BME280;29273;49.962;9.768;2023-04-23T12:38:04;98889.66;;;21.17;34.37
38780;BME280;29273;49.962;9.768;2023-04-23T12:40:30;98887.19;;;21.20;33.76
38780;BME280;29273;49.962;9.768;2023-04-23T12:42:56;98879.03;;;21.25;34.30
38780;BME280;29273;49.962;9.768;2023-04-23T12:45:21;98869.84;;;21.26;33.58
38780;BME280;29273;49.962;9.768;2023-04-23T12:47:47;98861.47;;;21.28;33.76
38780;BME280;29273;49.962;9.768;2023-04-23T12:50:12;98870.84;;;21.31;34.47
38780;BME280;29273;49.962;9.768;2023-04-23T12:52:37;98868.16;;;21.31;33.41
38780;BME280;29273;49.962;9.768;2023-04-23T12:55:03;98865.09;;;21.37;34.38
38780;BME280;29273;49.962;9.768;2023-04-23T12:57:29;98870.38;;;21.42;34.34
38780;BME280;29273;49.962;9.768;2023-04-23T12:59:54;98863.28;;;21.47;34.13
38780;BME280;29273;49.962;9.768;2023-04-23T13:02:21;98864.84;;;21.53;33.70
38780;BME280;29273;49.962;9.768;2023-04-23T13:04:47;98852.88;;;21.59;34.75
38780;BME280;29273;49.962;9.768;2023-04-23T13:07:13;98853.09;;;21.62;34.02